Time;durP1;ratioP1;P1;durP2;ratioP2;P2;SDS_P1;SDS_P2;PMS_P1;PMS_P2;Temp;Humidity;BMP_temperature;BMP_pressure;BME280_temperature;BME280_humidity;BME280_pressure;Samples;Min_cycle;Max_cycle;Signal;HPM_P1;HPM_P2
2021/09/17 00:00:43;;;;;;;7.40;6.40;;;;;;;17.06;67.33;100121.56;117819;1183;21884;-86
2021/09/17 00:04:29;;;;;;;6.10;5.40;;;;;;;16.98;67.37;100115.86;117984;1184;24141;-86
2021/09/17 00:07:59;;;;;;;7.90;6.20;;;;;;;16.90;67.54;100110.48;117347;1191;22505;-87
2021/09/17 00:10:33;;;;;;;6.50;4.10;;;;;;;16.87;67.70;100107.64;116923;1193;23567;-84
2021/09/17 00:13:08;;;;;;;6.50;4.10;;;;;;;16.87;67.63;100107.02;116625;1196;22524;-85
2021/09/17 00:15:45;;;;;;;9.20;3.80;;;;;;;16.85;67.44;100105.39;116380;1199;23487;-85
2021/09/17 00:18:37;;;;;;;6.80;4.40;;;;;;;16.81;67.30;100102.45;116314;1196;22672;-85
2021/09/17 00:21:30;;;;;;;4.40;3.90;;;;;;;16.77;67.20;100104.81;116493;1199;21912;-86
2021/09/17 00:24:09;;;;;;;5.90;4.50;;;;;;;16.73;67.21;100101.91;116391;1200;22352;-86
2021/09/17 00:27:02;;;;;;;5.10;3.90;;;;;;;16.68;67.20;100097.86;116156;1199;22913;-87
2021/09/17 00:30:16;;;;;;;6.40;3.90;;;;;;;16.64;67.29;100097.08;115964;1200;22645;-85
2021/09/17 00:33:18;;;;;;;5.20;3.70;;;;;;;16.58;67.30;100094.31;116069;1200;22216;-87
2021/09/17 00:37:08;;;;;;;4.60;4.10;;;;;;;16.54;67.53;100089.46;117421;1187;21899;-85
2021/09/17 00:39:53;;;;;;;8.20;4.50;;;;;;;16.48;67.52;100088.45;117340;1191;24144;-85
2021/09/17 00:42:24;;;;;;;6.30;5.10;;;;;;;16.45;67.61;100089.54;117278;1190;23537;-84
2021/09/17 00:45:15;;;;;;;6.80;4.90;;;;;;;16.44;67.57;100090.04;117331;1191;24217;-85
2021/09/17 00:48:48;;;;;;;9.00;5.30;;;;;;;16.39;67.67;100085.42;117276;1191;21937;-85
2021/09/17 00:52:17;;;;;;;13.00;5.80;;;;;;;16.32;67.60;100081.96;116990;1194;23444;-84
2021/09/17 00:55:07;;;;;;;5.60;4.90;;;;;;;16.24;67.84;100081.59;116778;1193;23579;-84
2021/09/17 01:01:27;;;;;;;6.80;5.80;;;;;;;16.13;68.08;100078.89;118009;1183;21837;-85
2021/09/17 01:05:07;;;;;;;7.10;5.70;;;;;;;16.07;68.24;100076.56;117952;1185;21902;-85
2021/09/17 01:12:16;;;;;;;7.60;6.20;;;;;;;15.96;68.52;100073.16;117805;1183;21953;-85
2021/09/17 01:15:05;;;;;;;8.10;5.70;;;;;;;15.92;68.63;100071.70;117484;1188;23022;-86
2021/09/17 01:18:45;;;;;;;6.50;5.90;;;;;;;15.86;68.82;100071.88;117770;1188;22322;-85
2021/09/17 01:22:13;;;;;;;6.50;5.70;;;;;;;15.83;68.88;100071.85;118225;1184;21907;-87
2021/09/17 01:25:16;;;;;;;7.10;5.80;;;;;;;15.77;69.00;100062.23;117587;1186;21904;-84
2021/09/17 01:28:09;;;;;;;7.20;6.50;;;;;;;15.75;69.20;100051.99;117415;1189;22045;-84
2021/09/17 01:31:43;;;;;;;9.00;5.90;;;;;;;15.74;69.27;100050.80;117442;1189;21892;-85
2021/09/17 01:35:15;;;;;;;8.20;5.60;;;;;;;15.67;69.41;100054.05;117992;1184;22181;-86
2021/09/17 01:37:57;;;;;;;6.30;5.60;;;;;;;15.64;69.49;100058.02;117761;1186;22368;-87
2021/09/17 01:40:48;;;;;;;6.40;5.60;;;;;;;15.62;69.45;100057.23;117799;1184;21904;-86
2021/09/17 01:44:02;;;;;;;7.70;6.70;;;;;;;15.58;69.63;100060.77;117573;1189;21924;-86
2021/09/17 01:47:15;;;;;;;7.20;5.70;;;;;;;15.53;69.71;100058.23;117520;1189;21893;-85
2021/09/17 01:49:54;;;;;;;6.70;6.00;;;;;;;15.49;69.98;100057.86;117406;1189;23543;-85
2021/09/17 01:52:25;;;;;;;8.30;6.70;;;;;;;15.47;69.80;100055.29;117407;1189;22267;-84
2021/09/17 01:54:54;;;;;;;7.00;6.40;;;;;;;15.45;69.92;100054.56;117318;1189;21883;-86
2021/09/17 01:57:44;;;;;;;7.30;6.30;;;;;;;15.43;70.03;100056.60;117331;1189;21905;-84
2021/09/17 02:00:26;;;;;;;9.10;7.80;;;;;;;15.38;69.95;100050.19;117400;1189;23414;-83
2021/09/17 02:02:58;;;;;;;8.50;7.60;;;;;;;15.32;69.94;100049.05;117416;1189;23480;-84
2021/09/17 02:05:30;;;;;;;8.70;7.70;;;;;;;15.27;70.04;100049.78;117292;1184;21877;-84
2021/09/17 02:08:05;;;;;;;10.20;8.70;;;;;;;15.22;70.05;100044.84;117486;1186;23535;-83
2021/09/17 02:10:36;;;;;;;11.60;9.10;;;;;;;15.17;70.23;100040.70;117191;1189;21875;-83
2021/09/17 02:13:30;;;;;;;9.40;8.50;;;;;;;15.13;70.30;100036.88;117265;1192;22609;-85
2021/09/17 02:17:09;;;;;;;8.90;8.10;;;;;;;15.02;70.47;100035.13;117851;1182;21859;-85
2021/09/17 02:20:18;;;;;;;10.60;9.60;;;;;;;14.96;70.69;100032.67;117452;1187;22856;-85
2021/09/17 02:23:16;;;;;;;9.00;8.20;;;;;;;14.90;70.80;100031.61;117584;1189;22061;-86
2021/09/17 02:26:05;;;;;;;8.80;7.90;;;;;;;14.84;71.16;100031.12;117321;1190;23500;-84
2021/09/17 02:29:54;;;;;;;10.80;9.60;;;;;;;14.80;71.54;100031.85;118050;1186;21840;-85
2021/09/17 02:32:57;;;;;;;9.20;8.30;;;;;;;14.76;71.53;100032.02;117972;1177;22239;-85
2021/09/17 02:37:09;;;;;;;12.60;11.40;;;;;;;14.70;71.59;100026.20;117561;1189;21962;-85
2021/09/17 02:40:15;;;;;;;10.10;9.10;;;;;;;14.68;71.87;100023.89;117265;1192;22952;-86
2021/09/17 02:44:01;;;;;;;10.70;9.70;;;;;;;14.64;72.08;100019.55;117931;1184;22018;-85
2021/09/17 02:47:15;;;;;;;10.50;8.80;;;;;;;14.61;72.23;100013.70;117735;1187;23558;-85
2021/09/17 02:50:34;;;;;;;10.10;9.10;;;;;;;14.61;72.28;100014.84;117686;1187;23664;-86
2021/09/17 02:53:28;;;;;;;9.50;8.70;;;;;;;14.58;72.28;100014.89;117755;1187;23498;-86
2021/09/17 02:56:15;;;;;;;12.90;9.60;;;;;;;14.56;72.45;100012.63;117663;1187;21870;-86
2021/09/17 02:59:18;;;;;;;9.70;8.80;;;;;;;14.55;72.62;100009.23;117591;1189;23436;-86
2021/09/17 03:02:41;;;;;;;10.20;9.20;;;;;;;14.51;72.78;100009.02;117841;1180;22926;-83
2021/09/17 03:05:23;;;;;;;10.40;9.30;;;;;;;14.51;72.94;100013.63;117892;1187;23451;-87
2021/09/17 03:09:00;;;;;;;10.90;9.70;;;;;;;14.49;73.05;100013.91;118001;1180;21881;-86
2021/09/17 03:12:55;;;;;;;10.50;9.40;;;;;;;14.45;73.17;100004.92;118286;1184;21918;-86
2021/09/17 03:20:05;;;;;;;9.90;8.90;;;;;;;14.41;73.57;99995.44;118155;1184;22920;-86
2021/09/17 03:23:54;;;;;;;11.50;9.60;;;;;;;14.38;73.67;99991.58;117890;1181;21883;-86
2021/09/17 03:27:35;;;;;;;9.50;8.70;;;;;;;14.37;73.84;99990.73;117938;1187;23440;-88
2021/09/17 03:31:11;;;;;;;10.40;9.40;;;;;;;14.37;74.06;99989.83;117884;1184;21888;-86
2021/09/17 03:34:50;;;;;;;12.20;9.40;;;;;;;14.39;74.23;99987.77;118077;1184;23454;-86
2021/09/17 03:38:38;;;;;;;10.00;9.20;;;;;;;14.40;74.47;99988.69;118222;1186;22845;-86
2021/09/17 03:42:29;;;;;;;9.80;8.80;;;;;;;14.40;74.51;99982.84;117808;1189;21941;-87
2021/09/17 03:45:16;;;;;;;9.20;8.40;;;;;;;14.43;74.60;99983.83;117375;1191;23453;-86
2021/09/17 03:49:00;;;;;;;10.00;8.50;;;;;;;14.43;74.53;99977.13;118097;1184;22832;-86
2021/09/17 03:53:09;;;;;;;12.50;8.50;;;;;;;14.43;74.70;99974.50;118064;1185;21886;-85
2021/09/17 03:56:56;;;;;;;9.50;8.60;;;;;;;14.44;74.68;99973.91;118109;1185;23594;-87
2021/09/17 04:01:01;;;;;;;9.30;8.50;;;;;;;14.46;74.72;99974.60;117903;1185;23674;-86
2021/09/17 04:03:47;;;;;;;9.00;8.20;;;;;;;14.48;74.89;99979.70;117345;1187;22271;-84
2021/09/17 04:06:58;;;;;;;8.90;8.10;;;;;;;14.50;74.86;99983.09;117381;1190;21939;-84
2021/09/17 04:09:29;;;;;;;9.80;8.50;;;;;;;14.52;74.79;99985.34;117265;1191;21905;-84
2021/09/17 04:12:03;;;;;;;11.30;8.40;;;;;;;14.54;74.80;99983.85;116911;1193;21906;-84
2021/09/17 04:14:59;;;;;;;10.10;8.80;;;;;;;14.55;74.63;99983.80;117237;1192;24783;-85
2021/09/17 04:17:28;;;;;;;10.20;8.50;;;;;;;14.55;74.74;99982.57;116899;1193;22923;-84
2021/09/17 04:20:10;;;;;;;12.90;7.80;;;;;;;14.55;74.75;99980.73;116950;1190;22819;-86
2021/09/17 04:23:24;;;;;;;9.50;8.50;;;;;;;14.52;74.82;99985.64;117857;1183;21892;-85
2021/09/17 04:26:18;;;;;;;9.80;8.80;;;;;;;14.53;74.81;99984.66;117601;1187;23142;-86
2021/09/17 04:29:16;;;;;;;10.70;8.90;;;;;;;14.54;74.89;99981.71;117337;1190;21923;-86
2021/09/17 04:32:06;;;;;;;9.40;8.60;;;;;;;14.54;74.90;99977.98;117275;1187;21899;-85
2021/09/17 04:34:43;;;;;;;15.00;8.90;;;;;;;14.55;74.80;99977.51;117243;1190;21990;-84
2021/09/17 04:37:17;;;;;;;11.40;8.50;;;;;;;14.55;74.89;99975.70;116951;1190;21906;-84
2021/09/17 04:39:47;;;;;;;10.60;8.60;;;;;;;14.57;74.88;99975.98;116968;1193;21932;-84
2021/09/17 04:42:26;;;;;;;11.30;9.60;;;;;;;14.57;74.91;99979.46;116782;1196;22316;-85
2021/09/17 04:45:12;;;;;;;9.40;8.10;;;;;;;14.59;75.04;99981.35;116681;1193;21858;-85
2021/09/17 04:47:45;;;;;;;10.90;9.40;;;;;;;14.60;75.04;99980.36;116805;1194;24233;-85
2021/09/17 04:50:44;;;;;;;10.00;8.10;;;;;;;14.63;75.09;99988.92;116903;1194;23061;-86
2021/09/17 04:53:24;;;;;;;11.70;8.40;;;;;;;14.64;75.09;99987.73;116892;1194;21948;-85
2021/09/17 04:56:17;;;;;;;10.30;9.50;;;;;;;14.66;75.12;99986.92;116931;1194;21894;-85
2021/09/17 05:02:17;;;;;;;13.20;9.90;;;;;;;14.73;75.35;99988.39;117879;1186;21916;-85
2021/09/17 05:05:12;;;;;;;14.00;9.30;;;;;;;14.79;75.51;99990.77;117664;1187;23528;-85
2021/09/17 05:07:55;;;;;;;10.30;9.20;;;;;;;14.85;75.46;99990.77;117674;1187;21876;-84
2021/09/17 05:10:56;;;;;;;12.70;9.20;;;;;;;14.90;75.32;99993.91;117636;1187;21884;-85
2021/09/17 05:13:32;;;;;;;9.50;8.60;;;;;;;14.97;75.31;99988.80;117576;1187;21968;-84
2021/09/17 05:16:26;;;;;;;12.30;8.70;;;;;;;15.01;75.31;99984.43;117587;1187;22921;-85
2021/09/17 05:19:14;;;;;;;11.00;9.80;;;;;;;15.08;75.23;99977.71;117833;1187;21881;-87
2021/09/17 05:22:53;;;;;;;9.60;8.00;;;;;;;15.14;75.30;99974.84;117511;1187;21896;-85
2021/09/17 05:25:27;;;;;;;10.10;9.00;;;;;;;15.20;75.10;99981.64;117347;1193;21949;-87
2021/09/17 05:28:42;;;;;;;12.50;10.40;;;;;;;15.27;75.12;99982.42;117325;1189;22329;-85
2021/09/17 05:31:27;;;;;;;9.30;7.90;;;;;;;15.34;74.98;99980.83;117294;1192;21937;-86
2021/09/17 05:34:22;;;;;;;15.90;8.80;;;;;;;15.39;74.87;99979.42;118139;1184;21872;-85
2021/09/17 05:37:38;;;;;;;;;;;;;;;;;;;;;
2021/09/17 05:41:19;;;;;;;12.00;8.60;;;;;;;15.50;74.64;99977.59;118180;1186;22096;-86
2021/09/17 05:48:41;;;;;;;9.90;8.40;;;;;;;15.65;74.64;99980.52;117811;1187;21931;-86
2021/09/17 05:51:32;;;;;;;10.30;7.50;;;;;;;15.73;74.78;99978.98;117487;1187;21915;-80
2021/09/17 05:54:07;;;;;;;11.20;8.50;;;;;;;15.84;74.69;99982.30;117332;1188;21900;-79
2021/09/17 05:56:36;;;;;;;11.60;8.50;;;;;;;15.96;74.60;99983.48;117284;1188;23265;-80
2021/09/17 05:59:06;;;;;;;13.10;7.90;;;;;;;16.07;74.40;99984.70;117288;1188;21895;-79
2021/09/17 06:01:36;;;;;;;9.90;8.80;;;;;;;16.16;74.25;99985.84;117167;1190;23618;-78
2021/09/17 06:04:09;;;;;;;17.70;10.10;;;;;;;16.24;74.02;99987.40;116849;1190;23551;-79
2021/09/17 06:06:39;;;;;;;9.70;7.80;;;;;;;16.31;73.79;99986.47;116814;1184;22923;-80
2021/09/17 06:09:09;;;;;;;8.30;7.50;;;;;;;16.38;73.67;99986.71;116820;1187;22921;-78
2021/09/17 06:11:38;;;;;;;8.80;7.90;;;;;;;16.43;73.27;99980.48;117062;1191;21917;-79
2021/09/17 06:14:29;;;;;;;10.80;8.40;;;;;;;16.47;73.02;99980.25;117188;1190;21887;-79
2021/09/17 06:16:59;;;;;;;8.60;7.70;;;;;;;16.52;72.79;99982.64;117064;1191;21909;-79
2021/09/17 06:19:29;;;;;;;9.00;7.10;;;;;;;16.56;72.61;99981.67;117070;1189;23629;-78
2021/09/17 06:21:58;;;;;;;9.60;7.10;;;;;;;16.59;72.39;99980.26;116936;1189;23158;-79
2021/09/17 06:24:28;;;;;;;11.10;7.30;;;;;;;16.61;72.29;99981.60;116876;1180;22929;-78
2021/09/17 06:27:01;;;;;;;11.60;8.60;;;;;;;16.62;72.15;99984.98;116684;1192;21986;-78
2021/09/17 06:29:34;;;;;;;8.00;6.80;;;;;;;16.62;72.18;99980.27;117022;1192;22638;-79
2021/09/17 06:32:04;;;;;;;8.00;7.20;;;;;;;16.66;72.26;99977.24;116734;1191;21891;-81
2021/09/17 06:34:36;;;;;;;7.90;6.50;;;;;;;16.69;72.11;99977.51;116996;1191;21903;-79
2021/09/17 06:37:06;;;;;;;9.40;8.00;;;;;;;16.73;72.04;99974.17;116996;1191;21883;-79
2021/09/17 06:39:35;;;;;;;9.50;6.80;;;;;;;16.77;71.97;99977.15;116526;1192;23555;-79
2021/09/17 06:42:07;;;;;;;9.00;7.60;;;;;;;16.80;71.70;99974.95;116999;1191;23535;-80
2021/09/17 06:44:37;;;;;;;7.90;7.10;;;;;;;16.80;71.52;99974.46;116947;1189;21891;-80
2021/09/17 06:47:07;;;;;;;12.30;7.10;;;;;;;16.78;71.39;99977.88;117155;1187;21918;-79
2021/09/17 06:49:37;;;;;;;9.20;8.00;;;;;;;16.77;71.41;99979.15;117125;1190;22825;-78
2021/09/17 06:52:08;;;;;;;12.20;9.00;;;;;;;16.76;71.32;99979.45;116947;1183;21908;-78
2021/09/17 06:54:37;;;;;;;14.90;9.20;;;;;;;16.77;71.39;99979.33;116936;1193;21909;-80
2021/09/17 06:57:06;;;;;;;10.20;8.70;;;;;;;16.78;71.44;99979.77;116960;1193;22103;-78
2021/09/17 06:59:42;;;;;;;11.80;9.20;;;;;;;16.79;71.42;99976.02;116774;1179;21893;-78
2021/09/17 07:02:12;;;;;;;9.60;7.30;;;;;;;16.81;71.59;99973.11;116991;1192;21885;-78
2021/09/17 07:04:42;;;;;;;10.50;7.80;;;;;;;16.81;71.47;99970.69;116531;1193;21928;-79
2021/09/17 07:07:11;;;;;;;8.20;6.70;;;;;;;16.84;71.57;99969.27;116752;1190;21901;-79
2021/09/17 07:09:43;;;;;;;9.70;7.20;;;;;;;16.87;71.55;99972.11;116657;1190;22884;-78
2021/09/17 07:12:12;;;;;;;;;;;;;;;16.91;71.53;99973.59;116579;1190;23761;-78
2021/09/17 07:14:51;;;;;;;11.70;7.90;;;;;;;16.87;71.66;99972.77;116812;1190;23123;-79
2021/09/17 07:17:21;;;;;;;9.30;8.00;;;;;;;16.88;71.44;99973.49;116907;1190;22981;-80
2021/09/17 07:19:50;;;;;;;9.30;7.70;;;;;;;16.92;71.46;99972.36;116493;1194;21882;-81
2021/09/17 07:22:20;;;;;;;8.90;8.00;;;;;;;16.98;71.45;99974.52;116551;1194;21937;-79
2021/09/17 07:24:50;;;;;;;11.60;6.70;;;;;;;17.04;71.32;99973.94;116503;1194;23032;-80
2021/09/17 07:27:20;;;;;;;10.20;6.00;;;;;;;17.07;71.05;99977.56;116830;1191;21881;-81
2021/09/17 07:29:50;;;;;;;11.30;6.30;;;;;;;17.09;70.96;99980.75;117125;1190;21904;-80
2021/09/17 07:32:19;;;;;;;11.20;6.80;;;;;;;17.12;70.88;99981.90;116945;1180;22945;-80
2021/09/17 07:34:49;;;;;;;11.40;6.60;;;;;;;17.15;70.87;99981.92;116509;1193;21899;-79
2021/09/17 07:37:18;;;;;;;9.00;6.90;;;;;;;17.20;70.94;99981.91;116687;1193;21913;-79
2021/09/17 07:39:48;;;;;;;8.60;7.10;;;;;;;17.25;70.85;99982.65;116419;1195;22244;-79
2021/09/17 07:42:17;;;;;;;6.80;6.20;;;;;;;17.27;70.52;99983.61;116228;1190;23590;-81
2021/09/17 07:44:47;;;;;;;7.80;6.70;;;;;;;17.29;70.29;99984.20;116424;1195;21929;-81
2021/09/17 07:47:17;;;;;;;10.20;6.90;;;;;;;17.30;70.18;99984.36;116301;1189;21923;-80
2021/09/17 07:49:46;;;;;;;10.20;7.70;;;;;;;17.32;70.11;99985.00;116491;1195;21891;-80
2021/09/17 07:52:16;;;;;;;8.80;7.60;;;;;;;17.30;69.81;99982.97;116226;1195;23448;-81
2021/09/17 07:54:53;;;;;;;8.40;7.20;;;;;;;17.29;69.97;99983.14;116477;1195;22677;-81
2021/09/17 07:57:26;;;;;;;8.60;7.70;;;;;;;17.29;69.77;99982.03;116388;1193;23452;-81
2021/09/17 07:59:55;;;;;;;17.20;8.20;;;;;;;17.29;69.73;99980.38;116486;1193;22869;-80
2021/09/17 08:02:25;;;;;;;7.30;6.60;;;;;;;17.31;69.85;99982.45;116468;1194;23497;-79
2021/09/17 08:04:54;;;;;;;8.20;6.10;;;;;;;17.34;69.91;99982.88;116689;1191;21909;-80
2021/09/17 08:07:24;;;;;;;13.10;8.60;;;;;;;17.36;69.85;99981.88;117036;1190;21968;-81
2021/09/17 08:09:54;;;;;;;7.80;7.10;;;;;;;17.38;69.80;99980.66;116959;1192;21914;-80
2021/09/17 08:12:23;;;;;;;12.40;8.20;;;;;;;17.39;69.66;99977.64;116755;1192;23441;-81
2021/09/17 08:14:53;;;;;;;19.60;8.50;;;;;;;17.42;69.57;99982.42;116932;1190;21915;-80
2021/09/17 08:17:22;;;;;;;9.30;8.20;;;;;;;17.47;69.69;99983.48;116785;1190;21951;-80
2021/09/17 08:19:52;;;;;;;16.80;8.10;;;;;;;17.54;69.64;99989.86;117131;1190;21905;-78
2021/09/17 08:22:21;;;;;;;10.20;6.90;;;;;;;17.56;69.41;99988.56;116963;1189;21889;-78
2021/09/17 08:25:00;;;;;;;9.80;7.80;;;;;;;17.55;69.00;99984.15;117029;1187;23539;-79
2021/09/17 08:27:31;;;;;;;12.80;8.20;;;;;;;17.55;69.04;99983.61;116946;1188;21909;-78
2021/09/17 08:30:09;;;;;;;7.20;6.20;;;;;;;17.55;68.95;99984.94;117045;1188;23972;-79
2021/09/17 08:32:39;;;;;;;12.00;7.60;;;;;;;17.56;69.22;99983.52;117048;1188;22842;-78
2021/09/17 08:35:12;;;;;;;6.40;5.80;;;;;;;17.58;69.11;99985.29;117124;1181;21896;-78
2021/09/17 08:37:41;;;;;;;7.50;5.80;;;;;;;17.59;68.89;99986.19;116904;1189;22900;-78
2021/09/17 08:40:15;;;;;;;7.00;6.30;;;;;;;17.59;68.71;99987.30;116839;1189;24130;-78
2021/09/17 08:42:45;;;;;;;9.10;6.10;;;;;;;17.58;68.60;99992.62;116826;1189;21896;-78
2021/09/17 08:45:14;;;;;;;8.00;6.20;;;;;;;17.56;68.63;99993.61;117004;1189;21938;-77
2021/09/17 08:47:50;;;;;;;12.20;7.00;;;;;;;17.54;68.45;99993.72;116859;1189;22892;-78
2021/09/17 08:50:21;;;;;;;8.90;7.90;;;;;;;17.52;68.46;99991.16;117020;1189;22985;-78
2021/09/17 08:52:51;;;;;;;9.00;6.60;;;;;;;17.51;68.54;99994.42;116985;1189;21870;-78
2021/09/17 08:55:23;;;;;;;12.30;7.80;;;;;;;17.50;68.48;99993.55;117052;1189;22834;-78
2021/09/17 08:57:52;;;;;;;7.10;6.50;;;;;;;17.48;68.42;99994.29;117004;1189;21887;-77
2021/09/17 09:00:28;;;;;;;7.00;6.00;;;;;;;17.47;68.61;99993.84;117082;1187;22374;-79
2021/09/17 09:03:00;;;;;;;8.30;6.20;;;;;;;17.47;68.69;99985.01;117300;1187;21983;-77
2021/09/17 09:05:33;;;;;;;9.00;6.00;;;;;;;17.47;68.75;99984.80;117189;1187;24257;-77
2021/09/17 09:08:05;;;;;;;7.20;6.40;;;;;;;17.47;68.62;99987.31;116944;1189;21885;-79
2021/09/17 09:10:37;;;;;;;9.10;6.70;;;;;;;17.45;68.59;99986.80;117082;1189;22702;-78
2021/09/17 09:13:07;;;;;;;10.50;8.00;;;;;;;17.44;68.60;99990.02;117040;1189;21876;-81
2021/09/17 09:15:37;;;;;;;7.60;6.40;;;;;;;17.45;68.69;99987.21;116890;1187;21905;-77
2021/09/17 09:18:14;;;;;;;7.00;6.00;;;;;;;17.46;68.75;99989.58;117047;1187;22904;-78
2021/09/17 09:20:49;;;;;;;7.30;6.20;;;;;;;17.47;68.75;99991.79;117031;1187;21905;-78
2021/09/17 09:23:27;;;;;;;11.60;6.00;;;;;;;17.48;68.80;99992.10;116901;1192;21900;-79
2021/09/17 09:26:01;;;;;;;8.10;7.00;;;;;;;17.50;68.87;99991.96;116563;1190;23546;-77
2021/09/17 09:28:34;;;;;;;9.50;6.30;;;;;;;17.54;68.97;99987.68;116886;1191;21868;-76
2021/09/17 09:31:10;;;;;;;12.40;7.30;;;;;;;17.58;68.88;99993.10;116691;1190;21885;-77
2021/09/17 09:33:46;;;;;;;13.00;6.00;;;;;;;17.62;68.86;99989.90;116742;1193;21944;-77
2021/09/17 09:36:19;;;;;;;12.60;7.10;;;;;;;17.65;68.58;99991.71;116561;1190;21899;-76
2021/09/17 09:38:54;;;;;;;14.70;7.40;;;;;;;17.67;68.58;99989.88;116754;1193;21951;-76
2021/09/17 09:41:35;;;;;;;12.00;7.30;;;;;;;17.69;68.67;99987.48;116752;1190;24056;-76
2021/09/17 09:44:16;;;;;;;11.40;8.20;;;;;;;17.74;68.72;99980.14;116903;1190;23536;-79
2021/09/17 09:46:58;;;;;;;10.10;7.30;;;;;;;17.80;68.75;99979.97;117019;1190;21892;-79
2021/09/17 09:49:29;;;;;;;15.20;6.80;;;;;;;17.87;68.71;99979.48;116768;1193;22850;-77
2021/09/17 09:52:06;;;;;;;9.50;6.60;;;;;;;17.91;68.32;99980.34;116753;1192;22280;-75
2021/09/17 09:54:38;;;;;;;6.40;5.80;;;;;;;17.91;68.10;99983.71;116566;1190;22385;-75
2021/09/17 09:57:07;;;;;;;8.50;6.50;;;;;;;17.88;68.02;99989.78;116815;1184;22923;-77
2021/09/17 09:59:37;;;;;;;9.80;8.00;;;;;;;17.83;68.16;99987.17;117001;1190;22187;-80
2021/09/17 10:02:07;;;;;;;8.30;7.20;;;;;;;17.79;68.40;99990.09;116960;1190;21919;-80
2021/09/17 10:04:41;;;;;;;10.70;8.10;;;;;;;17.73;68.69;99987.29;117013;1190;21881;-79
2021/09/17 10:07:11;;;;;;;8.00;6.90;;;;;;;17.68;69.21;99985.42;116992;1188;21917;-81
2021/09/17 10:09:41;;;;;;;9.70;7.10;;;;;;;17.65;69.36;99982.02;117101;1190;22129;-80
2021/09/17 10:12:13;;;;;;;;;;;;;;;17.63;69.91;99983.48;117084;1187;21871;-79
2021/09/17 10:14:45;;;;;;;7.20;6.50;;;;;;;17.58;70.38;99979.38;116759;1190;21897;-79
2021/09/17 10:17:27;;;;;;;9.50;6.30;;;;;;;17.59;70.60;99976.90;116787;1192;21880;-79
2021/09/17 10:19:59;;;;;;;7.70;6.90;;;;;;;17.66;70.84;99975.42;116539;1190;22223;-78
2021/09/17 10:22:39;;;;;;;7.80;7.10;;;;;;;17.73;70.92;99977.48;116488;1194;23601;-79
2021/09/17 10:25:16;;;;;;;9.30;8.10;;;;;;;17.81;71.06;99978.73;116446;1192;23448;-80
2021/09/17 10:28:11;;;;;;;7.80;7.00;;;;;;;17.88;70.73;99979.35;116597;1192;21889;-79
2021/09/17 10:30:42;;;;;;;10.30;6.20;;;;;;;17.89;70.33;99977.94;116489;1193;23444;-79
2021/09/17 10:33:29;;;;;;;9.60;6.00;;;;;;;17.90;70.00;99982.83;116318;1194;22887;-80
2021/09/17 10:36:02;;;;;;;5.70;5.20;;;;;;;17.90;69.75;99980.89;116220;1198;21920;-83
2021/09/17 10:38:40;;;;;;;7.50;6.00;;;;;;;17.93;69.84;99974.77;116218;1198;22394;-85
2021/09/17 10:41:12;;;;;;;5.90;5.40;;;;;;;17.97;69.71;99973.98;116258;1193;23464;-81
2021/09/17 10:43:46;;;;;;;6.30;5.80;;;;;;;18.02;69.67;99977.36;116101;1196;21887;-79
2021/09/17 10:46:42;;;;;;;7.70;5.70;;;;;;;18.08;69.46;99969.84;115946;1199;22236;-76
2021/09/17 10:49:11;;;;;;;6.30;5.70;;;;;;;18.16;69.53;99966.97;116022;1198;21918;-78
2021/09/17 10:51:42;;;;;;;9.70;5.80;;;;;;;18.23;68.94;99965.98;115907;1200;21907;-78
2021/09/17 10:54:16;;;;;;;6.90;5.00;;;;;;;18.29;68.54;99965.70;116166;1198;21904;-78
2021/09/17 10:57:09;;;;;;;6.50;5.60;;;;;;;18.35;68.30;99966.50;116062;1199;22323;-78
2021/09/17 10:59:44;;;;;;;7.60;4.70;;;;;;;18.40;68.04;99966.83;116106;1199;23316;-78
2021/09/17 11:02:15;;;;;;;5.00;4.60;;;;;;;18.44;67.70;99963.95;116139;1199;22666;-77
2021/09/17 11:04:50;;;;;;;5.60;4.20;;;;;;;18.49;67.65;99967.01;116022;1196;22220;-77
2021/09/17 11:07:43;;;;;;;5.80;4.80;;;;;;;18.56;67.52;99968.70;116078;1199;21891;-78
2021/09/17 11:10:25;;;;;;;5.40;4.30;;;;;;;18.66;67.26;99966.90;115957;1199;23316;-78
2021/09/17 11:13:05;;;;;;;5.20;3.80;;;;;;;18.74;66.91;99968.45;115966;1199;22940;-78
2021/09/17 11:15:37;;;;;;;5.80;4.50;;;;;;;18.82;66.46;99966.83;116135;1197;22418;-78
2021/09/17 11:18:16;;;;;;;5.50;3.80;;;;;;;18.88;65.79;99963.82;116194;1197;22195;-78
2021/09/17 11:20:46;;;;;;;4.50;3.80;;;;;;;18.91;65.19;99961.30;116159;1197;21929;-78
2021/09/17 11:23:15;;;;;;;10.00;3.70;;;;;;;18.90;64.81;99960.86;116208;1197;23546;-78
2021/09/17 11:25:45;;;;;;;4.40;3.90;;;;;;;18.88;64.75;99958.21;116010;1197;23466;-78
2021/09/17 11:28:28;;;;;;;6.70;3.70;;;;;;;18.90;64.87;99956.41;116304;1194;21902;-78
2021/09/17 11:31:14;;;;;;;7.20;3.90;;;;;;;18.88;64.69;99950.23;116472;1194;22071;-78
2021/09/17 11:33:56;;;;;;;7.40;5.70;;;;;;;18.90;64.75;99947.47;116417;1194;23467;-78
2021/09/17 11:36:41;;;;;;;5.20;4.20;;;;;;;18.92;64.54;99948.27;116508;1187;21883;-79
2021/09/17 11:39:22;;;;;;;5.10;3.70;;;;;;;18.92;64.45;99944.11;116976;1191;21883;-79
2021/09/17 11:42:07;;;;;;;4.50;3.80;;;;;;;18.93;64.50;99940.77;116487;1195;23481;-78
2021/09/17 11:44:49;;;;;;;7.40;4.10;;;;;;;18.98;64.52;99943.05;116494;1194;21903;-79
2021/09/17 11:47:29;;;;;;;6.90;3.60;;;;;;;19.02;64.33;99939.47;116463;1191;22765;-80
2021/09/17 11:50:08;;;;;;;7.30;3.70;;;;;;;19.07;64.28;99940.70;116757;1191;21906;-79
2021/09/17 11:52:51;;;;;;;6.60;2.80;;;;;;;19.10;63.80;99939.05;116758;1192;21949;-79
2021/09/17 11:55:26;;;;;;;8.30;3.00;;;;;;;19.10;63.27;99937.40;116884;1192;21907;-79
2021/09/17 11:57:58;;;;;;;4.80;3.10;;;;;;;19.07;62.93;99937.23;116778;1187;21894;-79
2021/09/17 12:00:29;;;;;;;5.30;2.60;;;;;;;19.04;62.82;99937.91;116638;1190;23623;-78
2021/09/17 12:03:08;;;;;;;5.40;3.30;;;;;;;19.00;62.47;99942.11;116902;1186;21867;-79
2021/09/17 12:05:42;;;;;;;3.10;2.40;;;;;;;18.90;62.33;99947.44;116827;1190;21884;-79
2021/09/17 12:08:18;;;;;;;4.80;2.50;;;;;;;18.74;62.23;99948.55;116859;1191;22917;-79
2021/09/17 12:10:57;;;;;;;4.50;1.60;;;;;;;18.55;62.45;99948.92;116870;1190;22650;-79
2021/09/17 12:13:27;;;;;;;6.70;2.10;;;;;;;18.39;62.80;99950.12;116842;1190;21917;-78
2021/09/17 12:16:06;;;;;;;2.40;1.50;;;;;;;18.26;63.04;99950.01;116458;1190;22672;-80
2021/09/17 12:18:35;;;;;;;5.70;2.00;;;;;;;18.13;63.29;99956.35;116405;1181;21885;-79
2021/09/17 12:21:05;;;;;;;4.90;3.20;;;;;;;18.02;63.85;99953.35;116661;1192;21895;-78
2021/09/17 12:23:56;;;;;;;7.90;4.20;;;;;;;17.96;64.62;99949.89;116552;1185;23595;-79
2021/09/17 12:26:26;;;;;;;4.80;4.20;;;;;;;17.92;65.12;99948.52;116520;1193;21876;-78
2021/09/17 12:28:57;;;;;;;9.20;6.60;;;;;;;17.90;65.60;99952.15;116449;1193;21980;-79
2021/09/17 12:31:33;;;;;;;6.90;6.20;;;;;;;17.91;66.19;99949.23;116807;1193;23265;-79
2021/09/17 12:34:13;;;;;;;9.50;8.00;;;;;;;17.92;66.55;99950.11;116938;1191;22901;-79
2021/09/17 12:36:49;;;;;;;8.20;6.00;;;;;;;17.94;66.64;99944.55;117069;1190;21881;-79
2021/09/17 12:39:24;;;;;;;6.20;5.10;;;;;;;17.92;66.74;99944.98;116994;1190;21917;-79
2021/09/17 12:42:10;;;;;;;3.80;3.30;;;;;;;17.95;67.05;99946.42;116251;1196;21947;-80
2021/09/17 12:44:42;;;;;;;7.70;5.70;;;;;;;18.00;66.79;99948.94;116293;1194;24068;-78
2021/09/17 12:47:12;;;;;;;5.90;2.80;;;;;;;18.02;66.61;99953.48;116710;1192;22358;-78
2021/09/17 12:49:41;;;;;;;6.00;3.20;;;;;;;18.01;66.30;99951.42;116309;1195;21896;-78
2021/09/17 12:52:11;;;;;;;2.90;2.40;;;;;;;18.00;66.19;99946.91;116281;1193;23435;-78
2021/09/17 12:54:43;;;;;;;3.00;2.00;;;;;;;18.01;66.33;99946.29;115933;1199;22320;-79
2021/09/17 12:57:19;;;;;;;3.90;2.30;;;;;;;18.06;66.33;99951.41;115845;1198;23568;-79
2021/09/17 13:00:06;;;;;;;3.50;1.40;;;;;;;18.08;65.79;99951.25;116148;1197;22414;-79
2021/09/17 13:02:35;;;;;;;3.20;2.00;;;;;;;18.10;65.75;99949.74;116314;1197;22181;-78
2021/09/17 13:05:09;;;;;;;3.50;2.00;;;;;;;18.14;65.71;99950.34;116228;1196;21884;-78